Main page
METAR-TAF:

METAR-TAF

Airports :

Augsburg, Germany

Augsburg Airport

latitude: 48-26N, longitude: 010-56E, elevation: 461 m

Current weather observation

The report was made 40 minutes ago, at 03:50 UTC
Wind 3 kt from the West, varying between West/Southwest and West/Northwest
Temperature 2°C
Humidity 93%
Pressure 1022 hPa
Visibility: 5000 m

METAR: EDMA 180350Z AUTO 28003KT 240V300 5000 // OVC004/// 02/01 Q1022

Time: 05:30 (04:30 UTC)

Forecast

The report was made 9 hours and 26 minutes ago, at 19:04 UTC
Forecast valid from 17 at 19 UTC to 18 at 03 UTC
Wind 2 kt from variable directions
Visibility: 6000 m
Few clouds at a height of 700 ft
Broken clouds at a height of 4000 ft
Becoming
from 17 at 19 UTC to 17 at 23 UTC
Visibility: 4000 m
Broken clouds at a height of 700 ft
mist

TAF: EDMA 171904Z 1719/1803 VRB02KT 6000 FEW007 BKN040 BECMG 1719/1723 4000 BR BKN007

Weather observations and forecasts of more than 4000 airports (METAR and TAF reports).

The available stations are represented by yellow and red dots on the map.

Hover mouse over dot to see the name of the station.

Then click to see weather observations and forecasts.

To change the map : click on the green buttons with a black cross to zoom in, on the green button with a dash to zoom out, or on the green arrows for adjacent maps.


METAR-TAF: